Time;durP1;ratioP1;P1;durP2;ratioP2;P2;SDS_P1;SDS_P2;PMS_P1;PMS_P2;Temp;Humidity;BMP_temperature;BMP_pressure;BME280_temperature;BME280_humidity;BME280_pressure;Samples;Min_cycle;Max_cycle;Signal;HPM_P1;HPM_P2
2021/08/03 00:00:40;;;;;;;5.15;2.22;;;;;;;;;;1476274;40;20407;-83
2021/08/03 00:01:42;;;;;;;6.25;2.50;;;;;;;;;;1475467;40;20870;-82
2021/08/03 00:02:45;;;;;;;6.40;2.58;;;;;;;;;;1472843;40;20409;-82
2021/08/03 00:03:59;;;;;;;3.13;2.20;;;;;;;;;;1476502;40;20413;-81
2021/08/03 00:05:05;;;;;;;3.80;1.80;;;;;;;;;;1476311;40;20506;-81
2021/08/03 00:06:14;;;;;;;2.20;2.00;;;;;;;;;;1476410;40;20392;-81
2021/08/03 00:07:24;;;;;;;5.03;2.47;;;;;;;;;;1479996;40;20437;-81
2021/08/03 00:08:36;;;;;;;4.40;2.30;;;;;;;;;;1475004;40;20420;-83
2021/08/03 00:09:39;;;;;;;4.78;2.28;;;;;;;;;;1471902;40;20417;-83
2021/08/03 00:10:41;;;;;;;2.53;1.95;;;;;;;;;;1470862;40;20675;-82
2021/08/03 00:11:45;;;;;;;4.40;2.15;;;;;;;;;;1471136;40;20409;-81
2021/08/03 00:12:52;;;;;;;2.53;2.10;;;;;;;;;;1475155;40;20397;-80
2021/08/03 00:13:59;;;;;;;4.22;2.17;;;;;;;;;;1477625;40;20422;-82
2021/08/03 00:15:04;;;;;;;4.57;2.13;;;;;;;;;;1472426;40;20612;-84
2021/08/03 00:16:08;;;;;;;2.90;1.60;;;;;;;;;;1473323;40;20536;-82
2021/08/03 00:17:19;;;;;;;3.80;2.47;;;;;;;;;;1478245;40;20430;-84
2021/08/03 00:18:20;;;;;;;3.88;2.28;;;;;;;;;;1477155;40;20459;-82
2021/08/03 00:19:24;;;;;;;6.35;2.40;;;;;;;;;;1476508;40;20408;-81
2021/08/03 00:20:27;;;;;;;5.20;2.63;;;;;;;;;;1476583;40;20404;-81
2021/08/03 00:21:28;;;;;;;2.40;2.10;;;;;;;;;;1474965;40;20474;-81
2021/08/03 00:22:31;;;;;;;3.10;2.03;;;;;;;;;;1476869;40;20514;-81
2021/08/03 00:23:41;;;;;;;3.80;2.22;;;;;;;;;;1476519;40;20717;-81
2021/08/03 00:24:47;;;;;;;6.40;2.20;;;;;;;;;;1473400;40;20420;-81
2021/08/03 00:25:53;;;;;;;5.82;1.67;;;;;;;;;;1471638;40;20442;-82
2021/08/03 00:26:55;;;;;;;4.78;2.08;;;;;;;;;;1473305;40;20402;-79
2021/08/03 00:28:00;;;;;;;4.80;2.08;;;;;;;;;;1472628;40;20850;-81
2021/08/03 00:29:02;;;;;;;4.53;2.30;;;;;;;;;;1473578;40;20403;-82
2021/08/03 00:30:07;;;;;;;3.25;1.98;;;;;;;;;;1476326;40;20416;-81
2021/08/03 00:31:13;;;;;;;4.55;2.13;;;;;;;;;;1475517;40;20404;-85
2021/08/03 00:32:16;;;;;;;3.58;1.70;;;;;;;;;;1474856;40;20408;-80
2021/08/03 00:33:20;;;;;;;5.22;2.08;;;;;;;;;;1473869;40;20428;-83
2021/08/03 00:34:23;;;;;;;4.07;1.90;;;;;;;;;;1474360;40;20447;-82
2021/08/03 00:35:25;;;;;;;3.42;1.90;;;;;;;;;;1474439;40;20408;-83
2021/08/03 00:36:30;;;;;;;4.20;2.00;;;;;;;;;;1470028;40;20480;-82
2021/08/03 00:37:32;;;;;;;5.07;2.38;;;;;;;;;;1474408;40;20432;-82
2021/08/03 00:38:34;;;;;;;3.70;1.80;;;;;;;;;;1473518;40;20416;-82
2021/08/03 00:39:38;;;;;;;3.17;1.88;;;;;;;;;;1474192;40;20483;-82
2021/08/03 00:40:57;;;;;;;4.40;2.13;;;;;;;;;;1478184;40;20379;-82
2021/08/03 00:42:01;;;;;;;3.25;2.10;;;;;;;;;;1478553;40;20405;-82
2021/08/03 00:43:03;;;;;;;3.75;2.20;;;;;;;;;;1478054;40;20417;-80
2021/08/03 00:44:05;;;;;;;4.20;1.80;;;;;;;;;;1474017;40;20439;-82
2021/08/03 00:45:07;;;;;;;6.22;2.60;;;;;;;;;;1474314;40;20456;-82
2021/08/03 00:46:09;;;;;;;3.47;2.10;;;;;;;;;;1475263;40;21113;-84
2021/08/03 00:47:15;;;;;;;4.00;2.17;;;;;;;;;;1479501;40;20398;-86
2021/08/03 00:48:17;;;;;;;2.17;1.83;;;;;;;;;;1479152;40;20458;-80
2021/08/03 00:49:18;;;;;;;2.67;1.90;;;;;;;;;;1475201;40;20404;-82
2021/08/03 00:50:22;;;;;;;3.58;2.03;;;;;;;;;;1475114;40;20396;-82
2021/08/03 00:51:24;;;;;;;3.42;2.28;;;;;;;;;;1478828;40;20406;-82
2021/08/03 00:52:26;;;;;;;3.35;1.50;;;;;;;;;;1474215;40;20400;-82
2021/08/03 00:53:30;;;;;;;6.13;2.03;;;;;;;;;;1474038;40;20401;-82
2021/08/03 00:54:32;;;;;;;2.75;1.50;;;;;;;;;;1474033;40;20857;-82
2021/08/03 00:55:36;;;;;;;4.07;1.67;;;;;;;;;;1473796;40;20568;-82
2021/08/03 00:56:38;;;;;;;4.03;1.83;;;;;;;;;;1473599;40;20714;-81
2021/08/03 00:57:42;;;;;;;5.85;2.00;;;;;;;;;;1466483;40;20466;-83
2021/08/03 00:58:44;;;;;;;6.70;1.90;;;;;;;;;;1470200;40;20935;-82
2021/08/03 00:59:45;;;;;;;3.05;1.70;;;;;;;;;;1473615;40;20404;-81
2021/08/03 01:00:47;;;;;;;6.88;1.98;;;;;;;;;;1473550;40;20736;-82
2021/08/03 01:01:48;;;;;;;4.07;2.05;;;;;;;;;;1466371;40;20418;-82
2021/08/03 01:02:50;;;;;;;3.97;1.83;;;;;;;;;;1469909;40;20525;-82
2021/08/03 01:03:52;;;;;;;3.63;1.83;;;;;;;;;;1474560;40;20392;-85
2021/08/03 01:04:54;;;;;;;3.42;1.90;;;;;;;;;;1474341;40;20503;-82
2021/08/03 01:06:08;;;;;;;3.95;1.70;;;;;;;;;;1473907;40;20482;-81
2021/08/03 01:07:47;;;;;;;2.65;1.50;;;;;;;;;;1477129;40;20862;-85
2021/08/03 01:09:04;;;;;;;2.30;1.73;;;;;;;;;;1480225;40;20402;-82
2021/08/03 01:10:13;;;;;;;4.53;2.00;;;;;;;;;;1480758;40;20410;-82
2021/08/03 01:11:24;;;;;;;6.43;1.93;;;;;;;;;;1478139;40;20499;-84
2021/08/03 01:12:31;;;;;;;3.33;1.58;;;;;;;;;;1478697;40;20913;-81
2021/08/03 01:14:00;;;;;;;2.70;1.80;;;;;;;;;;1474709;40;20494;-83
2021/08/03 01:15:12;;;;;;;3.50;1.90;;;;;;;;;;1474310;40;20790;-82
2021/08/03 01:16:22;;;;;;;2.17;1.75;;;;;;;;;;1479082;40;20391;-87
2021/08/03 01:17:39;;;;;;;3.25;1.63;;;;;;;;;;1475999;40;20414;-85
2021/08/03 01:19:05;;;;;;;3.80;1.80;;;;;;;;;;1469298;40;20404;-81
2021/08/03 01:20:22;;;;;;;3.37;1.73;;;;;;;;;;1470823;40;20421;-81
2021/08/03 01:21:32;;;;;;;4.70;1.77;;;;;;;;;;1470850;40;20820;-82
2021/08/03 01:23:09;;;;;;;6.20;2.20;;;;;;;;;;1471516;40;20943;-81
2021/08/03 01:24:17;;;;;;;4.32;1.63;;;;;;;;;;1471880;40;20521;-83
2021/08/03 01:25:28;;;;;;;2.40;1.50;;;;;;;;;;1470328;40;20691;-81
2021/08/03 01:26:56;;;;;;;4.95;2.05;;;;;;;;;;1470419;40;21074;-81
2021/08/03 01:28:11;;;;;;;4.30;1.80;;;;;;;;;;1470520;40;20394;-82
2021/08/03 01:29:18;;;;;;;2.30;1.60;;;;;;;;;;1470493;40;20453;-82
2021/08/03 01:30:20;;;;;;;5.43;2.00;;;;;;;;;;1470191;40;20513;-82
2021/08/03 01:31:26;;;;;;;4.53;2.13;;;;;;;;;;1465711;40;21192;-82
2021/08/03 01:32:32;;;;;;;3.72;1.70;;;;;;;;;;1469923;40;20409;-83
2021/08/03 01:33:41;;;;;;;2.30;1.52;;;;;;;;;;1470312;40;20537;-83
2021/08/03 01:34:46;;;;;;;4.85;1.90;;;;;;;;;;1470246;40;20684;-84
2021/08/03 01:35:50;;;;;;;6.65;2.35;;;;;;;;;;1469959;40;20397;-82
2021/08/03 01:36:56;;;;;;;4.05;1.95;;;;;;;;;;1469834;40;20431;-81
2021/08/03 01:38:00;;;;;;;2.97;1.67;;;;;;;;;;1473998;40;20408;-82
2021/08/03 01:39:03;;;;;;;3.50;1.60;;;;;;;;;;1473282;40;20399;-83
2021/08/03 01:40:07;;;;;;;3.05;1.65;;;;;;;;;;1470172;40;20428;-82
2021/08/03 01:41:14;;;;;;;9.23;2.65;;;;;;;;;;1470455;40;20409;-82
2021/08/03 01:42:17;;;;;;;4.00;1.92;;;;;;;;;;1470162;40;20444;-83
2021/08/03 01:43:19;;;;;;;3.55;1.55;;;;;;;;;;1469755;40;20401;-82
2021/08/03 01:44:22;;;;;;;2.85;2.03;;;;;;;;;;1465542;40;20475;-82
2021/08/03 01:45:24;;;;;;;2.85;2.05;;;;;;;;;;1469588;40;20900;-82
2021/08/03 01:46:27;;;;;;;4.55;1.63;;;;;;;;;;1473305;40;20589;-83
2021/08/03 01:47:30;;;;;;;3.20;1.90;;;;;;;;;;1469641;40;20395;-82
2021/08/03 01:48:34;;;;;;;3.13;1.85;;;;;;;;;;1465622;40;21123;-83
2021/08/03 01:49:39;;;;;;;4.13;2.00;;;;;;;;;;1469183;40;20417;-82
2021/08/03 01:50:43;;;;;;;2.78;1.92;;;;;;;;;;1469679;40;20556;-83
2021/08/03 01:51:46;;;;;;;4.80;1.63;;;;;;;;;;1470061;40;20491;-82
2021/08/03 01:52:49;;;;;;;3.95;2.00;;;;;;;;;;1469361;40;20418;-82
2021/08/03 01:53:51;;;;;;;3.03;1.70;;;;;;;;;;1465361;40;20427;-83
2021/08/03 01:54:55;;;;;;;3.58;1.90;;;;;;;;;;1469476;40;20450;-82
2021/08/03 01:55:59;;;;;;;2.63;1.70;;;;;;;;;;1465395;40;20407;-83
2021/08/03 01:57:02;;;;;;;2.75;2.03;;;;;;;;;;1457660;40;21320;-81
2021/08/03 01:58:04;;;;;;;3.67;1.85;;;;;;;;;;1461896;40;20810;-81
2021/08/03 01:59:08;;;;;;;3.35;2.10;;;;;;;;;;1465935;40;20423;-82
2021/08/03 02:00:10;;;;;;;5.53;1.60;;;;;;;;;;1469794;40;20803;-82
2021/08/03 02:01:13;;;;;;;3.13;1.88;;;;;;;;;;1469333;40;20440;-85
2021/08/03 02:02:17;;;;;;;2.90;1.55;;;;;;;;;;1469836;40;20487;-84
2021/08/03 02:03:21;;;;;;;3.33;1.92;;;;;;;;;;1473219;40;20456;-82
2021/08/03 02:04:24;;;;;;;5.00;2.00;;;;;;;;;;1469829;40;20786;-82
2021/08/03 02:05:25;;;;;;;7.00;2.10;;;;;;;;;;1469081;40;20409;-82
2021/08/03 02:06:29;;;;;;;4.45;1.75;;;;;;;;;;1469588;40;20409;-81
2021/08/03 02:07:31;;;;;;;1.95;1.70;;;;;;;;;;1469309;40;21064;-82
2021/08/03 02:08:35;;;;;;;4.93;2.15;;;;;;;;;;1469696;40;20433;-83
2021/08/03 02:09:38;;;;;;;3.40;1.70;;;;;;;;;;1469240;40;20434;-83
2021/08/03 02:10:40;;;;;;;3.38;1.80;;;;;;;;;;1469626;40;20429;-82
2021/08/03 02:11:43;;;;;;;3.70;1.85;;;;;;;;;;1473731;40;20516;-82
2021/08/03 02:12:47;;;;;;;2.50;1.85;;;;;;;;;;1469702;40;20513;-82
2021/08/03 02:13:49;;;;;;;4.03;1.88;;;;;;;;;;1466105;40;20459;-81
2021/08/03 02:14:51;;;;;;;5.90;1.73;;;;;;;;;;1465726;40;20432;-82
2021/08/03 02:15:53;;;;;;;4.18;2.00;;;;;;;;;;1469735;40;20506;-81
2021/08/03 02:16:55;;;;;;;5.88;2.40;;;;;;;;;;1470708;40;20401;-82
2021/08/03 02:17:57;;;;;;;2.75;2.15;;;;;;;;;;1461954;40;20453;-82
2021/08/03 02:19:00;;;;;;;3.22;2.13;;;;;;;;;;1461835;40;20529;-82
2021/08/03 02:20:05;;;;;;;2.35;1.77;;;;;;;;;;1469326;40;21002;-82
2021/08/03 02:21:07;;;;;;;3.00;1.77;;;;;;;;;;1469976;40;20453;-82
2021/08/03 02:22:09;;;;;;;2.83;1.73;;;;;;;;;;1466152;40;20458;-81
2021/08/03 02:23:12;;;;;;;2.45;1.98;;;;;;;;;;1470043;40;20479;-85
2021/08/03 02:24:14;;;;;;;2.78;2.03;;;;;;;;;;1474340;40;20407;-85
2021/08/03 02:25:17;;;;;;;2.75;1.75;;;;;;;;;;1471156;40;20406;-86
2021/08/03 02:26:19;;;;;;;3.53;2.17;;;;;;;;;;1474381;40;20850;-85
2021/08/03 02:27:20;;;;;;;5.43;2.20;;;;;;;;;;1475218;40;20454;-85
2021/08/03 02:28:22;;;;;;;3.40;1.85;;;;;;;;;;1474366;40;20426;-82
2021/08/03 02:29:24;;;;;;;2.87;1.83;;;;;;;;;;1471718;40;20558;-81
2021/08/03 02:30:26;;;;;;;4.47;1.87;;;;;;;;;;1467474;40;20544;-82
2021/08/03 02:31:42;;;;;;;2.88;2.10;;;;;;;;;;1474388;40;20425;-83
2021/08/03 02:32:54;;;;;;;4.25;2.22;;;;;;;;;;1478792;40;20416;-84
2021/08/03 02:33:59;;;;;;;3.45;2.22;;;;;;;;;;1471866;40;20403;-85
2021/08/03 02:35:35;;;;;;;3.20;1.65;;;;;;;;;;1467131;40;20424;-81
2021/08/03 02:36:44;;;;;;;5.07;2.05;;;;;;;;;;1464720;40;20557;-82
2021/08/03 02:37:51;;;;;;;3.95;1.67;;;;;;;;;;1471181;40;20454;-82
2021/08/03 02:38:57;;;;;;;3.13;1.60;;;;;;;;;;1471090;40;20517;-81
2021/08/03 02:40:02;;;;;;;2.92;2.10;;;;;;;;;;1474835;40;20432;-81
2021/08/03 02:41:04;;;;;;;3.55;1.73;;;;;;;;;;1471000;40;20430;-81
2021/08/03 02:42:09;;;;;;;4.40;1.80;;;;;;;;;;1470407;40;20730;-82
2021/08/03 02:43:17;;;;;;;4.40;1.90;;;;;;;;;;1470448;40;20405;-81
2021/08/03 02:44:21;;;;;;;3.47;1.73;;;;;;;;;;1470822;40;20445;-82
2021/08/03 02:45:24;;;;;;;3.65;1.23;;;;;;;;;;1472030;40;20416;-82
2021/08/03 02:46:28;;;;;;;4.40;1.48;;;;;;;;;;1473862;40;20425;-82
2021/08/03 02:47:45;;;;;;;2.60;1.30;;;;;;;;;;1473729;40;20413;-81
2021/08/03 02:49:00;;;;;;;2.43;1.33;;;;;;;;;;1474024;40;20405;-84
2021/08/03 02:50:06;;;;;;;4.55;1.80;;;;;;;;;;1478645;40;20423;-81
2021/08/03 02:51:10;;;;;;;5.38;1.58;;;;;;;;;;1470715;40;20850;-82
2021/08/03 02:52:13;;;;;;;3.90;1.52;;;;;;;;;;1470774;40;20801;-82
2021/08/03 02:53:45;;;;;;;3.50;1.23;;;;;;;;;;1470834;40;20699;-81
2021/08/03 02:54:53;;;;;;;3.25;1.40;;;;;;;;;;1470032;40;20457;-82
2021/08/03 02:55:58;;;;;;;3.85;1.25;;;;;;;;;;1470318;40;20939;-82
2021/08/03 02:57:03;;;;;;;3.20;1.13;;;;;;;;;;1473869;40;20387;-82
2021/08/03 02:58:14;;;;;;;3.00;1.20;;;;;;;;;;1473898;40;20408;-82
2021/08/03 02:59:17;;;;;;;3.05;1.38;;;;;;;;;;1470253;40;20641;-85
2021/08/03 03:00:18;;;;;;;5.00;1.58;;;;;;;;;;1470158;40;20422;-83
2021/08/03 03:01:22;;;;;;;2.97;1.50;;;;;;;;;;1473256;40;20820;-84
2021/08/03 03:02:26;;;;;;;4.35;1.83;;;;;;;;;;1473318;40;20420;-82
2021/08/03 03:03:34;;;;;;;3.72;1.67;;;;;;;;;;1469529;40;20416;-82
2021/08/03 03:04:41;;;;;;;2.65;1.33;;;;;;;;;;1469886;40;20936;-82
2021/08/03 03:05:47;;;;;;;5.18;1.30;;;;;;;;;;1469492;40;20397;-81
2021/08/03 03:06:54;;;;;;;3.25;1.20;;;;;;;;;;1469616;40;20972;-82
2021/08/03 03:08:02;;;;;;;2.42;1.10;;;;;;;;;;1468722;40;20438;-82
2021/08/03 03:09:04;;;;;;;1.70;1.30;;;;;;;;;;1469624;40;20378;-82
2021/08/03 03:10:11;;;;;;;2.20;1.20;;;;;;;;;;1469612;40;20473;-84
2021/08/03 03:11:16;;;;;;;3.03;1.45;;;;;;;;;;1470142;40;20417;-85
2021/08/03 03:12:18;;;;;;;3.90;2.33;;;;;;;;;;1469774;40;20413;-82
2021/08/03 03:13:20;;;;;;;2.92;1.40;;;;;;;;;;1469016;40;20512;-82
2021/08/03 03:14:24;;;;;;;3.85;1.30;;;;;;;;;;1469048;40;20418;-81
2021/08/03 03:15:29;;;;;;;2.05;1.50;;;;;;;;;;1469199;40;20756;-82
2021/08/03 03:16:33;;;;;;;2.38;1.25;;;;;;;;;;1469183;40;20420;-82
2021/08/03 03:17:36;;;;;;;2.80;1.00;;;;;;;;;;1475137;40;21240;-83
2021/08/03 03:18:39;;;;;;;2.90;1.35;;;;;;;;;;1473299;40;20460;-82
2021/08/03 03:19:42;;;;;;;2.60;1.10;;;;;;;;;;1469325;40;20468;-83
2021/08/03 03:20:46;;;;;;;1.95;1.00;;;;;;;;;;1473397;40;20404;-81
2021/08/03 03:21:49;;;;;;;3.72;1.60;;;;;;;;;;1473234;40;20526;-82
2021/08/03 03:22:53;;;;;;;3.60;1.33;;;;;;;;;;1473283;40;20576;-81
2021/08/03 03:23:57;;;;;;;3.58;1.40;;;;;;;;;;1473179;40;20412;-83
2021/08/03 03:24:59;;;;;;;3.00;1.30;;;;;;;;;;1469555;40;20408;-82
2021/08/03 03:26:03;;;;;;;3.38;0.98;;;;;;;;;;1469191;40;20807;-82
2021/08/03 03:27:05;;;;;;;5.57;2.10;;;;;;;;;;1473334;40;20412;-82
2021/08/03 03:28:06;;;;;;;3.22;1.40;;;;;;;;;;1473025;40;20865;-82
2021/08/03 03:29:09;;;;;;;3.38;1.15;;;;;;;;;;1472962;40;20507;-82
2021/08/03 03:30:15;;;;;;;2.88;1.00;;;;;;;;;;1469017;40;20716;-81
2021/08/03 03:31:18;;;;;;;4.03;1.70;;;;;;;;;;1465673;40;20410;-82
2021/08/03 03:32:21;;;;;;;3.00;1.38;;;;;;;;;;1473431;40;20415;-82
2021/08/03 03:33:24;;;;;;;3.38;1.60;;;;;;;;;;1477292;40;20791;-83
2021/08/03 03:34:27;;;;;;;4.30;1.52;;;;;;;;;;1477771;40;20405;-81
2021/08/03 03:35:30;;;;;;;3.65;1.30;;;;;;;;;;1473472;40;20508;-82
2021/08/03 03:36:33;;;;;;;3.40;1.25;;;;;;;;;;1469354;40;20495;-81
2021/08/03 03:37:36;;;;;;;3.30;1.20;;;;;;;;;;1469659;40;20850;-82
2021/08/03 03:38:41;;;;;;;3.72;1.27;;;;;;;;;;1474171;40;20427;-82
2021/08/03 03:39:43;;;;;;;9.25;1.73;;;;;;;;;;1473498;40;20415;-83
2021/08/03 03:40:47;;;;;;;1.88;1.35;;;;;;;;;;1469182;40;20406;-82
2021/08/03 03:41:52;;;;;;;3.53;1.80;;;;;;;;;;1473342;40;20537;-81
2021/08/03 03:42:58;;;;;;;4.45;2.45;;;;;;;;;;1477256;40;20410;-82
2021/08/03 03:43:59;;;;;;;4.70;2.08;;;;;;;;;;1477605;40;20429;-81
2021/08/03 03:45:02;;;;;;;4.85;1.77;;;;;;;;;;1477647;40;20419;-83
2021/08/03 03:46:05;;;;;;;3.42;1.98;;;;;;;;;;1473173;40;20718;-82
2021/08/03 03:47:24;;;;;;;6.18;1.90;;;;;;;;;;1473219;40;20423;-82
2021/08/03 03:48:27;;;;;;;4.57;1.73;;;;;;;;;;1477598;40;20426;-82
2021/08/03 03:49:36;;;;;;;3.65;1.75;;;;;;;;;;1473769;40;20417;-81
2021/08/03 03:50:44;;;;;;;2.03;1.55;;;;;;;;;;1474442;40;20451;-83
2021/08/03 03:51:45;;;;;;;4.15;1.45;;;;;;;;;;1477977;40;20458;-83
2021/08/03 03:52:53;;;;;;;1.33;1.23;;;;;;;;;;1477857;40;20402;-82
2021/08/03 03:54:02;;;;;;;2.40;2.00;;;;;;;;;;1478163;40;20383;-82
2021/08/03 03:55:05;;;;;;;2.97;1.52;;;;;;;;;;1474145;40;20454;-82
2021/08/03 03:56:09;;;;;;;3.20;1.58;;;;;;;;;;1473399;40;20450;-83
2021/08/03 03:57:11;;;;;;;2.72;1.40;;;;;;;;;;1477965;40;20459;-86
2021/08/03 03:58:17;;;;;;;3.35;1.70;;;;;;;;;;1477029;40;20431;-85
2021/08/03 03:59:20;;;;;;;2.42;1.30;;;;;;;;;;1475274;40;20643;-82
2021/08/03 04:00:22;;;;;;;2.85;1.45;;;;;;;;;;1475065;40;20477;-82
2021/08/03 04:01:25;;;;;;;3.00;1.90;;;;;;;;;;1476206;40;20404;-84
2021/08/03 04:02:29;;;;;;;2.88;1.55;;;;;;;;;;1478606;40;20395;-83
2021/08/03 04:03:35;;;;;;;3.78;1.42;;;;;;;;;;1474973;40;20513;-81
2021/08/03 04:04:39;;;;;;;3.70;1.70;;;;;;;;;;1474727;40;20414;-82
2021/08/03 04:05:43;;;;;;;2.73;1.40;;;;;;;;;;1475618;40;20512;-81
2021/08/03 04:06:45;;;;;;;3.92;1.65;;;;;;;;;;1479462;40;20399;-81
2021/08/03 04:07:50;;;;;;;3.83;1.50;;;;;;;;;;1479112;40;20512;-81
2021/08/03 04:08:52;;;;;;;2.75;1.40;;;;;;;;;;1475043;40;20474;-82
2021/08/03 04:10:04;;;;;;;2.40;1.67;;;;;;;;;;1474837;40;20466;-82
2021/08/03 04:11:06;;;;;;;3.78;1.92;;;;;;;;;;1470468;40;20405;-82
2021/08/03 04:12:08;;;;;;;3.92;1.42;;;;;;;;;;1470437;40;20461;-82
2021/08/03 04:13:11;;;;;;;4.25;1.70;;;;;;;;;;1473844;40;20502;-82
2021/08/03 04:14:22;;;;;;;3.05;1.48;;;;;;;;;;1478118;40;20402;-83
2021/08/03 04:15:24;;;;;;;5.38;1.60;;;;;;;;;;1479289;40;20745;-81
2021/08/03 04:16:26;;;;;;;2.88;1.77;;;;;;;;;;1474997;40;20416;-82
2021/08/03 04:17:28;;;;;;;3.70;1.75;;;;;;;;;;1466125;40;20419;-82
2021/08/03 04:18:29;;;;;;;3.80;1.70;;;;;;;;;;1466563;40;20427;-81
2021/08/03 04:19:31;;;;;;;3.97;1.60;;;;;;;;;;1473879;40;20542;-82
2021/08/03 04:20:33;;;;;;;6.25;1.58;;;;;;;;;;1473368;40;20785;-81
2021/08/03 04:21:34;;;;;;;3.00;1.50;;;;;;;;;;1473443;40;20499;-82
2021/08/03 04:22:36;;;;;;;4.50;1.27;;;;;;;;;;1470147;40;20500;-82
2021/08/03 04:23:38;;;;;;;2.33;1.53;;;;;;;;;;1469516;40;20406;-82
2021/08/03 04:24:40;;;;;;;4.55;1.55;;;;;;;;;;1474123;40;20424;-83
2021/08/03 04:25:41;;;;;;;4.30;1.50;;;;;;;;;;1469389;40;20424;-83
2021/08/03 04:26:44;;;;;;;3.85;1.60;;;;;;;;;;1469548;40;20655;-82
2021/08/03 04:27:46;;;;;;;2.50;1.38;;;;;;;;;;1473962;40;20474;-83
2021/08/03 04:28:47;;;;;;;1.48;1.17;;;;;;;;;;1473626;40;20412;-82
2021/08/03 04:29:50;;;;;;;2.33;1.27;;;;;;;;;;1469439;40;20442;-82
2021/08/03 04:30:52;;;;;;;2.42;1.30;;;;;;;;;;1469629;40;20445;-82
2021/08/03 04:31:53;;;;;;;2.53;1.27;;;;;;;;;;1473400;40;20938;-82
2021/08/03 04:32:55;;;;;;;3.88;1.40;;;;;;;;;;1473355;40;20469;-81
2021/08/03 04:33:57;;;;;;;2.53;1.60;;;;;;;;;;1475492;40;20865;-81
2021/08/03 04:34:59;;;;;;;3.85;1.80;;;;;;;;;;1476230;40;20404;-83
2021/08/03 04:36:01;;;;;;;2.63;1.58;;;;;;;;;;1476113;40;20400;-81
2021/08/03 04:37:03;;;;;;;4.22;1.38;;;;;;;;;;1476057;40;20650;-82
2021/08/03 04:38:04;;;;;;;4.13;1.63;;;;;;;;;;1473927;40;20415;-84
2021/08/03 04:39:10;;;;;;;4.07;1.42;;;;;;;;;;1473497;40;20424;-82
2021/08/03 04:40:15;;;;;;;3.30;1.30;;;;;;;;;;1469988;40;20409;-84
2021/08/03 04:41:17;;;;;;;3.05;1.52;;;;;;;;;;1469935;40;21084;-85
2021/08/03 04:42:18;;;;;;;3.92;1.75;;;;;;;;;;1469648;40;20527;-82
2021/08/03 04:43:23;;;;;;;5.07;1.40;;;;;;;;;;1470790;40;20413;-82
2021/08/03 04:44:25;;;;;;;2.65;1.60;;;;;;;;;;1465219;40;20461;-82
2021/08/03 04:45:26;;;;;;;3.47;1.55;;;;;;;;;;1461868;40;20423;-83
2021/08/03 04:46:28;;;;;;;5.18;1.63;;;;;;;;;;1465975;40;20415;-81
2021/08/03 04:47:30;;;;;;;3.90;1.65;;;;;;;;;;1465086;40;20447;-82
2021/08/03 04:48:31;;;;;;;3.05;1.70;;;;;;;;;;1465307;40;20882;-83
2021/08/03 04:49:33;;;;;;;2.55;1.40;;;;;;;;;;1461158;40;20863;-82
2021/08/03 04:50:35;;;;;;;5.22;1.67;;;;;;;;;;1462016;40;20416;-82
2021/08/03 04:51:36;;;;;;;3.75;1.50;;;;;;;;;;1469886;40;20413;-82
2021/08/03 04:52:38;;;;;;;2.67;1.20;;;;;;;;;;1473553;40;20541;-81
2021/08/03 04:53:40;;;;;;;2.78;1.60;;;;;;;;;;1473858;40;20527;-81
2021/08/03 04:54:44;;;;;;;4.15;1.88;;;;;;;;;;1469575;40;20833;-83
2021/08/03 04:55:45;;;;;;;5.57;2.00;;;;;;;;;;1469719;40;20468;-81
2021/08/03 04:56:47;;;;;;;3.00;2.40;;;;;;;;;;1470774;40;20468;-82
2021/08/03 04:57:49;;;;;;;5.35;2.55;;;;;;;;;;1474084;40;20419;-83
2021/08/03 04:58:51;;;;;;;5.38;2.25;;;;;;;;;;1470272;40;20790;-82
2021/08/03 04:59:52;;;;;;;2.70;1.70;;;;;;;;;;1466422;40;20427;-84
2021/08/03 05:00:54;;;;;;;5.23;2.03;;;;;;;;;;1474042;40;20519;-83
2021/08/03 05:01:55;;;;;;;2.88;1.60;;;;;;;;;;1478680;40;20402;-81
2021/08/03 05:02:57;;;;;;;4.57;1.50;;;;;;;;;;1474373;40;20499;-83
2021/08/03 05:04:00;;;;;;;3.78;1.70;;;;;;;;;;1474391;40;20944;-83
2021/08/03 05:05:03;;;;;;;2.13;1.45;;;;;;;;;;1474080;40;20923;-83
2021/08/03 05:06:04;;;;;;;5.05;1.58;;;;;;;;;;1472733;40;20418;-81
2021/08/03 05:07:06;;;;;;;4.47;1.95;;;;;;;;;;1479237;40;20412;-85
2021/08/03 05:08:07;;;;;;;2.88;1.60;;;;;;;;;;1475965;40;20822;-81
2021/08/03 05:09:09;;;;;;;2.55;1.60;;;;;;;;;;1476437;40;20411;-85
2021/08/03 05:10:13;;;;;;;1.80;1.40;;;;;;;;;;1478069;40;20498;-85
2021/08/03 05:11:15;;;;;;;2.60;1.90;;;;;;;;;;1478101;40;20400;-85
2021/08/03 05:12:17;;;;;;;1.98;1.45;;;;;;;;;;1478203;40;20428;-85
2021/08/03 05:13:19;;;;;;;3.87;1.80;;;;;;;;;;1478235;40;20400;-82
2021/08/03 05:14:20;;;;;;;6.38;1.90;;;;;;;;;;1474222;40;20473;-81
2021/08/03 05:15:23;;;;;;;3.65;1.83;;;;;;;;;;1473291;40;20421;-81
2021/08/03 05:16:25;;;;;;;2.58;1.60;;;;;;;;;;1472037;40;20754;-83
2021/08/03 05:17:28;;;;;;;5.88;2.00;;;;;;;;;;1477562;40;20412;-81
2021/08/03 05:18:30;;;;;;;3.60;1.90;;;;;;;;;;1480611;40;20462;-80
2021/08/03 05:19:31;;;;;;;4.45;2.28;;;;;;;;;;1481930;40;20394;-82
2021/08/03 05:20:33;;;;;;;4.68;2.38;;;;;;;;;;1478286;40;20474;-82
2021/08/03 05:21:35;;;;;;;4.18;2.20;;;;;;;;;;1474036;40;20974;-81
2021/08/03 05:22:37;;;;;;;5.55;2.50;;;;;;;;;;1469004;40;20427;-81
2021/08/03 05:23:39;;;;;;;5.00;2.13;;;;;;;;;;1467313;40;20407;-82
2021/08/03 05:24:40;;;;;;;4.97;2.60;;;;;;;;;;1471030;40;20778;-81
2021/08/03 05:25:42;;;;;;;5.97;2.80;;;;;;;;;;1471046;40;20418;-81
2021/08/03 05:26:44;;;;;;;4.38;2.65;;;;;;;;;;1475310;40;20392;-82
2021/08/03 05:27:45;;;;;;;4.20;1.83;;;;;;;;;;1474370;40;20789;-82
2021/08/03 05:28:47;;;;;;;5.28;2.10;;;;;;;;;;1474235;40;20512;-82
2021/08/03 05:29:49;;;;;;;4.03;2.20;;;;;;;;;;1473896;40;20404;-82
2021/08/03 05:30:50;;;;;;;2.53;1.98;;;;;;;;;;1474077;40;20797;-82
2021/08/03 05:31:52;;;;;;;4.57;2.47;;;;;;;;;;1473584;40;20427;-81
2021/08/03 05:32:54;;;;;;;3.55;1.88;;;;;;;;;;1469758;40;20405;-83
2021/08/03 05:33:55;;;;;;;4.05;2.05;;;;;;;;;;1469178;40;20417;-82
2021/08/03 05:34:59;;;;;;;2.40;1.98;;;;;;;;;;1465543;40;20483;-82
2021/08/03 05:36:01;;;;;;;3.35;2.15;;;;;;;;;;1469497;40;20799;-83
2021/08/03 05:37:05;;;;;;;5.55;2.00;;;;;;;;;;1474022;40;20774;-82
2021/08/03 05:38:08;;;;;;;3.38;1.45;;;;;;;;;;1469472;40;20410;-82
2021/08/03 05:39:12;;;;;;;3.13;1.65;;;;;;;;;;1465539;40;21060;-81
2021/08/03 05:40:19;;;;;;;3.53;2.03;;;;;;;;;;1469738;40;20402;-84
2021/08/03 05:41:21;;;;;;;5.13;1.75;;;;;;;;;;1474168;40;20506;-82
2021/08/03 05:42:23;;;;;;;3.08;1.67;;;;;;;;;;1473490;40;20403;-83
2021/08/03 05:43:24;;;;;;;3.22;1.42;;;;;;;;;;1473738;40;20463;-82
2021/08/03 05:44:26;;;;;;;2.78;1.35;;;;;;;;;;1469517;40;20482;-82
2021/08/03 05:45:28;;;;;;;3.80;1.60;;;;;;;;;;1469613;40;20775;-82
2021/08/03 05:46:33;;;;;;;6.87;1.83;;;;;;;;;;1469444;40;20454;-84
2021/08/03 05:47:35;;;;;;;3.53;1.60;;;;;;;;;;1461619;40;20996;-81
2021/08/03 05:48:36;;;;;;;4.63;2.00;;;;;;;;;;1465544;40;20528;-83
2021/08/03 05:49:38;;;;;;;2.40;1.42;;;;;;;;;;1473391;40;20431;-81
2021/08/03 05:50:39;;;;;;;3.72;1.33;;;;;;;;;;1461505;40;20474;-81
2021/08/03 05:51:41;;;;;;;4.93;1.80;;;;;;;;;;1462094;40;20408;-82
2021/08/03 05:52:46;;;;;;;2.92;1.13;;;;;;;;;;1469289;40;20402;-82
2021/08/03 05:53:47;;;;;;;2.90;1.13;;;;;;;;;;1469637;40;20457;-83
2021/08/03 05:54:55;;;;;;;6.22;1.48;;;;;;;;;;1473293;40;20416;-82
2021/08/03 05:55:57;;;;;;;4.15;1.10;;;;;;;;;;1468973;40;20476;-82
2021/08/03 05:56:59;;;;;;;4.80;1.20;;;;;;;;;;1461688;40;20496;-82
2021/08/03 05:58:00;;;;;;;4.15;1.20;;;;;;;;;;1465658;40;20419;-82
2021/08/03 05:59:02;;;;;;;2.20;1.20;;;;;;;;;;1473341;40;20415;-82
2021/08/03 06:00:04;;;;;;;2.50;1.10;;;;;;;;;;1473986;40;20451;-82
2021/08/03 06:01:06;;;;;;;3.28;0.90;;;;;;;;;;1469235;40;20422;-82
2021/08/03 06:02:08;;;;;;;4.20;0.90;;;;;;;;;;1469153;40;20409;-81
2021/08/03 06:03:10;;;;;;;3.53;1.20;;;;;;;;;;1465151;40;20503;-82
2021/08/03 06:04:12;;;;;;;2.08;1.00;;;;;;;;;;1466828;40;20415;-82
2021/08/03 06:05:13;;;;;;;2.72;1.00;;;;;;;;;;1469485;40;20807;-85
2021/08/03 06:06:15;;;;;;;4.45;1.40;;;;;;;;;;1461599;40;20432;-84
2021/08/03 06:07:17;;;;;;;4.68;1.23;;;;;;;;;;1469843;40;20413;-86
2021/08/03 06:08:25;;;;;;;2.60;1.20;;;;;;;;;;1477378;40;20418;-82
2021/08/03 06:09:27;;;;;;;4.25;1.40;;;;;;;;;;1478158;40;20454;-82
2021/08/03 06:10:33;;;;;;;1.95;1.10;;;;;;;;;;1473473;40;20948;-82
2021/08/03 06:11:36;;;;;;;2.78;1.25;;;;;;;;;;1469880;40;20429;-81
2021/08/03 06:12:39;;;;;;;3.20;1.13;;;;;;;;;;1474185;40;20506;-82
2021/08/03 06:13:46;;;;;;;2.60;1.38;;;;;;;;;;1477894;40;20433;-85
2021/08/03 06:14:51;;;;;;;3.70;1.00;;;;;;;;;;1478968;40;20382;-86
2021/08/03 06:15:54;;;;;;;5.63;1.40;;;;;;;;;;1477857;40;20413;-84
2021/08/03 06:16:59;;;;;;;2.70;0.98;;;;;;;;;;1478035;40;20504;-88
2021/08/03 06:18:07;;;;;;;3.10;1.00;;;;;;;;;;1473282;40;20773;-84
2021/08/03 06:19:13;;;;;;;2.80;0.82;;;;;;;;;;1468285;40;20477;-86
2021/08/03 06:20:15;;;;;;;1.88;1.00;;;;;;;;;;1466350;40;20416;-91
2021/08/03 06:21:19;;;;;;;4.05;0.88;;;;;;;;;;1474146;40;20471;-86
2021/08/03 06:22:21;;;;;;;3.22;0.90;;;;;;;;;;1474978;40;20416;-86
2021/08/03 06:23:23;;;;;;;2.45;0.80;;;;;;;;;;1474199;40;20784;-84
2021/08/03 06:24:27;;;;;;;2.03;0.70;;;;;;;;;;1474323;40;20474;-84
2021/08/03 06:25:30;;;;;;;1.42;0.82;;;;;;;;;;1474466;40;20489;-85
2021/08/03 06:26:34;;;;;;;6.85;1.10;;;;;;;;;;1478016;40;20398;-86